Time;durP1;ratioP1;P1;durP2;ratioP2;P2;SDS_P1;SDS_P2;PMS_P1;PMS_P2;Temp;Humidity;BMP_temperature;BMP_pressure;BME280_temperature;BME280_humidity;BME280_pressure;Samples;Min_cycle;Max_cycle;Signal;HPM_P1;HPM_P2
2022/01/13 00:00:34;;;;;;;16.17;13.70;;;;;;;-0.79;100.00;98525.91;5073903;28;20436;-74
2022/01/13 00:03:00;;;;;;;16.47;11.83;;;;;;;-0.66;100.00;98529.31;5073561;28;20512;-74
2022/01/13 00:05:29;;;;;;;17.57;13.07;;;;;;;-1.01;100.00;98494.09;5073507;28;20891;-74
2022/01/13 00:07:59;;;;;;;15.13;13.23;;;;;;;-1.28;100.00;98494.06;5073548;28;20502;-74
2022/01/13 00:10:26;;;;;;;18.83;13.53;;;;;;;-1.21;100.00;98494.06;5057248;28;20502;-74
2022/01/13 00:13:02;;;;;;;14.77;13.03;;;;;;;-0.83;100.00;98527.28;5057186;28;20497;-74
2022/01/13 00:15:51;;;;;;;15.90;14.20;;;;;;;-1.14;100.00;98484.50;5073665;28;20416;-74
2022/01/13 00:18:36;;;;;;;16.90;11.97;;;;;;;-1.09;100.00;98496.88;5056889;28;20436;-74
2022/01/13 00:21:16;;;;;;;18.93;13.60;;;;;;;-0.70;100.00;98542.88;5056904;28;20425;-74
2022/01/13 00:23:46;;;;;;;18.77;14.93;;;;;;;-1.05;100.00;98488.53;5073208;28;20490;-74
2022/01/13 00:26:26;;;;;;;18.57;13.50;;;;;;;-1.17;100.00;98515.25;5056677;28;20517;-74
2022/01/13 00:28:54;;;;;;;20.00;14.90;;;;;;;-0.96;100.00;98535.84;5073339;28;20435;-74
2022/01/13 00:31:27;;;;;;;20.30;14.50;;;;;;;-0.72;100.00;98545.66;5073430;28;20479;-74
2022/01/13 00:33:57;;;;;;;25.63;14.10;;;;;;;-1.02;100.00;98536.66;5074577;28;20420;-74
2022/01/13 00:36:29;;;;;;;20.43;15.50;;;;;;;-0.87;100.00;98534.66;5072879;28;20463;-74
2022/01/13 00:38:57;;;;;;;20.40;14.30;;;;;;;-0.94;100.00;98544.22;5072938;28;20428;-74
2022/01/13 00:41:29;;;;;;;19.80;14.07;;;;;;;-1.24;100.00;98495.25;5073021;28;20436;-74
2022/01/13 00:43:58;;;;;;;17.50;12.87;;;;;;;-1.17;100.00;98541.19;5072744;28;20448;-75
2022/01/13 00:46:30;;;;;;;22.43;15.43;;;;;;;-1.38;100.00;98522.16;5055646;28;20488;-74
2022/01/13 00:48:58;;;;;;;18.83;14.80;;;;;;;-1.29;100.00;98517.63;5056311;28;20524;-74
2022/01/13 00:51:25;;;;;;;20.07;13.97;;;;;;;-1.34;100.00;98514.78;5072817;28;20505;-74
2022/01/13 00:53:52;;;;;;;35.20;17.13;;;;;;;-1.21;100.00;98504.44;5072694;28;20440;-74
2022/01/13 00:56:20;;;;;;;18.53;14.00;;;;;;;-1.21;100.00;98504.44;5072914;28;20467;-74
2022/01/13 00:58:47;;;;;;;25.97;15.80;;;;;;;-1.05;100.00;98535.25;5056507;28;20794;-74
2022/01/13 01:01:14;;;;;;;21.53;16.73;;;;;;;-1.32;100.00;98461.72;5072727;28;20445;-74
2022/01/13 01:03:41;;;;;;;18.23;13.10;;;;;;;-1.14;100.00;98460.34;5072657;28;20523;-74
2022/01/13 01:06:08;;;;;;;19.50;15.20;;;;;;;-0.85;100.00;98543.06;5074566;28;20429;-74
2022/01/13 01:08:36;;;;;;;20.00;14.40;;;;;;;-0.88;100.00;98525.28;5072674;28;20440;-74
2022/01/13 01:11:04;;;;;;;19.30;12.93;;;;;;;-0.86;100.00;98501.72;5073575;28;20438;-74
2022/01/13 01:13:33;;;;;;;19.60;13.93;;;;;;;-0.79;100.00;98497.34;5074422;28;20432;-74
2022/01/13 01:16:05;;;;;;;14.50;11.00;;;;;;;-0.76;100.00;98496.94;5056039;28;20468;-74
2022/01/13 01:28:59;;;;;;;13.73;9.73;;;;;;;-1.13;100.00;98519.84;5072009;28;20431;-74
2022/01/13 01:31:30;;;;;;;12.30;10.43;;;;;;;-1.49;100.00;98474.25;5072082;28;20412;-74
2022/01/13 01:34:22;;;;;;;18.90;12.97;;;;;;;-1.47;100.00;98502.56;5072370;28;20409;-74
2022/01/13 01:36:51;;;;;;;15.03;9.77;;;;;;;-1.31;100.00;98528.19;5071677;28;20503;-74
2022/01/13 01:39:18;;;;;;;13.70;10.77;;;;;;;-1.41;100.00;98506.19;5055408;28;20493;-74
2022/01/13 01:41:47;;;;;;;16.70;12.70;;;;;;;-1.44;100.00;98509.19;5071842;28;20436;-74
2022/01/13 01:44:20;;;;;;;14.90;11.57;;;;;;;-1.58;100.00;98501.38;5071662;28;20460;-74
2022/01/13 01:46:47;;;;;;;18.67;11.70;;;;;;;-1.06;100.00;98532.84;5071846;28;20977;-74
2022/01/13 01:49:18;;;;;;;15.40;11.70;;;;;;;-1.02;100.00;98527.06;5071781;28;20443;-74
2022/01/13 01:51:48;;;;;;;15.83;10.13;;;;;;;-1.28;100.00;98478.50;5072995;28;20416;-74
2022/01/13 01:54:15;;;;;;;11.80;9.47;;;;;;;-1.53;100.00;98467.84;5071472;28;20478;-74
2022/01/13 01:56:43;;;;;;;19.40;12.43;;;;;;;-1.43;100.00;98483.06;5072439;28;20959;-74
2022/01/13 01:59:16;;;;;;;13.67;11.57;;;;;;;-1.21;100.00;98515.63;5071007;28;20451;-74
2022/01/13 02:01:45;;;;;;;15.07;11.10;;;;;;;-1.55;100.00;98487.19;5071461;28;20451;-74
2022/01/13 02:04:12;;;;;;;16.37;12.27;;;;;;;-1.46;100.00;98522.34;5071460;28;20476;-74
2022/01/13 02:06:40;;;;;;;14.83;11.57;;;;;;;-1.31;100.00;98522.22;5054758;28;20871;-73
2022/01/13 02:09:09;;;;;;;19.50;13.57;;;;;;;-1.56;100.00;98495.97;5071369;28;21084;-74
2022/01/13 02:11:43;;;;;;;15.97;11.53;;;;;;;-1.55;100.00;98523.50;5071130;28;20440;-74
2022/01/13 02:16:51;;;;;;;23.33;13.53;;;;;;;-1.50;100.00;98531.50;5070962;28;20491;-74
2022/01/13 02:19:18;;;;;;;18.57;14.50;;;;;;;-1.48;100.00;98522.53;5071073;28;20478;-74
2022/01/13 02:21:45;;;;;;;18.70;13.10;;;;;;;-1.66;100.00;98490.34;5072387;28;20462;-74
2022/01/13 02:24:12;;;;;;;19.23;13.10;;;;;;;-1.41;100.00;98517.38;5070782;28;20566;-74
2022/01/13 02:26:39;;;;;;;20.03;12.93;;;;;;;-1.59;100.00;98486.81;5070924;28;20460;-74
2022/01/13 02:29:05;;;;;;;15.87;13.23;;;;;;;-1.30;100.00;98521.22;5071038;28;20471;-75
2022/01/13 02:31:32;;;;;;;22.07;13.30;;;;;;;-1.81;100.00;98443.84;5070925;28;20947;-74
2022/01/13 02:33:59;;;;;;;19.93;13.50;;;;;;;-1.38;100.00;98509.19;5054459;28;20531;-74
2022/01/13 02:36:27;;;;;;;25.30;15.40;;;;;;;-1.35;100.00;98503.59;5054143;28;20563;-74
2022/01/13 02:38:55;;;;;;;19.67;15.10;;;;;;;-1.40;100.00;98490.44;5054228;28;20480;-74
2022/01/13 02:41:23;;;;;;;17.77;12.97;;;;;;;-1.34;100.00;98500.00;5070637;28;20475;-74
2022/01/13 02:43:53;;;;;;;20.20;14.87;;;;;;;-1.64;100.00;98475.41;5054383;28;20513;-74
2022/01/13 02:49:00;;;;;;;19.40;14.77;;;;;;;-1.48;100.00;98477.63;5070963;28;20463;-73
2022/01/13 02:51:27;;;;;;;17.73;13.30;;;;;;;-1.33;100.00;98495.66;5071005;28;20440;-74
2022/01/13 02:53:54;;;;;;;17.07;13.70;;;;;;;-1.70;100.00;98447.66;5072101;28;20976;-73
2022/01/13 02:56:21;;;;;;;18.77;13.70;;;;;;;-1.60;100.00;98463.66;5070493;28;20456;-74
2022/01/13 02:58:47;;;;;;;22.50;14.77;;;;;;;-1.51;100.00;98480.63;5054098;28;20443;-74
2022/01/13 03:01:15;;;;;;;23.63;16.17;;;;;;;-1.48;100.00;98485.41;5071847;28;20497;-74
2022/01/13 03:03:43;;;;;;;19.73;13.57;;;;;;;-1.67;100.00;98484.38;5070258;28;21005;-74
2022/01/13 03:06:15;;;;;;;23.00;13.63;;;;;;;-1.77;100.00;98486.50;5070416;28;20533;-74
2022/01/13 03:08:46;;;;;;;23.90;16.70;;;;;;;-1.65;100.00;98486.75;5053835;28;20428;-73
2022/01/13 03:11:14;;;;;;;17.83;13.77;;;;;;;-1.67;100.00;98455.84;5069873;28;20432;-73
2022/01/13 03:13:41;;;;;;;17.40;15.30;;;;;;;-1.71;100.00;98443.47;5070631;28;20493;-74
2022/01/13 03:16:13;;;;;;;25.73;15.57;;;;;;;-1.57;100.00;98484.81;5053786;28;20433;-74
2022/01/13 03:18:40;;;;;;;23.80;15.90;;;;;;;-1.63;100.00;98480.38;5070138;28;20440;-74
2022/01/13 03:21:08;;;;;;;22.87;15.30;;;;;;;-1.52;100.00;98476.44;5070080;28;20867;-73
2022/01/13 03:23:36;;;;;;;21.60;15.40;;;;;;;-1.62;100.00;98463.03;5071406;28;20468;-73
2022/01/13 03:26:03;;;;;;;14.67;11.20;;;;;;;-1.80;100.00;98448.03;5069948;28;20456;-73
2022/01/13 03:28:50;;;;;;;20.97;14.50;;;;;;;-1.74;100.00;98465.38;5069871;28;20464;-73
2022/01/13 03:31:19;;;;;;;24.40;14.70;;;;;;;-1.62;100.00;98486.38;5071141;28;20923;-74
2022/01/13 03:33:46;;;;;;;23.43;16.73;;;;;;;-1.75;100.00;98470.75;5070056;28;20873;-73
2022/01/13 03:36:13;;;;;;;25.10;16.10;;;;;;;-1.91;100.00;98483.06;5069600;28;20460;-73
2022/01/13 03:38:41;;;;;;;23.10;15.97;;;;;;;-1.85;100.00;98505.66;5053175;28;20448;-74
2022/01/13 03:41:07;;;;;;;19.97;13.40;;;;;;;-1.91;100.00;98509.00;5071203;28;20436;-73
2022/01/13 03:43:36;;;;;;;24.23;16.40;;;;;;;-2.30;100.00;98424.06;5069861;28;20436;-73
2022/01/13 03:46:05;;;;;;;21.27;15.10;;;;;;;-1.67;100.00;98494.75;5070050;28;20487;-73
2022/01/13 03:48:36;;;;;;;19.70;14.70;;;;;;;-1.76;100.00;98466.56;5070029;28;20412;-73
2022/01/13 03:51:03;;;;;;;22.37;15.50;;;;;;;-1.58;100.00;98488.41;5069950;28;20468;-73
2022/01/13 03:53:29;;;;;;;22.07;16.00;;;;;;;-1.68;100.00;98502.72;5070245;28;20440;-73
2022/01/13 03:56:34;;;;;;;20.60;15.97;;;;;;;-1.81;100.00;98498.28;5069840;28;20947;-74
2022/01/13 03:59:30;;;;;;;25.80;16.73;;;;;;;-1.79;100.00;98497.09;5069699;28;20463;-73
2022/01/13 04:02:02;;;;;;;26.93;17.53;;;;;;;-1.81;100.00;98496.47;5069799;28;20470;-73
2022/01/13 04:04:30;;;;;;;26.50;18.17;;;;;;;-2.10;100.00;98422.41;5069877;28;20427;-73
2022/01/13 04:07:18;;;;;;;25.50;16.37;;;;;;;-1.64;100.00;98483.16;5069678;28;21038;-73
2022/01/13 04:09:45;;;;;;;23.33;16.20;;;;;;;-1.61;100.00;98508.72;5053282;28;20459;-73
2022/01/13 04:12:14;;;;;;;24.63;16.30;;;;;;;-1.70;100.00;98489.16;5053283;28;20539;-74
2022/01/13 04:14:59;;;;;;;22.47;16.20;;;;;;;-1.73;100.00;98464.41;5070123;28;20427;-73
2022/01/13 04:17:27;;;;;;;26.93;19.00;;;;;;;-1.49;100.00;98510.56;5069640;28;20464;-75
2022/01/13 04:19:55;;;;;;;26.57;18.17;;;;;;;-1.50;100.00;98505.56;5069882;28;20441;-73
2022/01/13 04:22:24;;;;;;;22.67;16.80;;;;;;;-1.47;100.00;98502.56;5055694;28;20440;-73
2022/01/13 04:24:52;;;;;;;25.67;16.90;;;;;;;-1.85;100.00;98464.16;5073469;28;20460;-74
2022/01/13 04:27:22;;;;;;;23.97;16.00;;;;;;;-1.88;100.00;98502.63;5073170;28;20455;-74
2022/01/13 04:30:10;;;;;;;24.13;15.80;;;;;;;-2.20;100.00;98468.56;5073200;28;20421;-74
2022/01/13 04:32:38;;;;;;;24.27;16.60;;;;;;;-2.01;100.00;98513.72;5074627;28;20417;-74
2022/01/13 04:35:09;;;;;;;25.80;17.50;;;;;;;-2.13;100.00;98494.53;5073122;28;20436;-74
2022/01/13 04:37:36;;;;;;;25.90;17.13;;;;;;;-2.33;100.00;98470.28;5072961;28;20558;-74
2022/01/13 04:40:05;;;;;;;23.50;16.37;;;;;;;-2.11;100.00;98523.66;5073065;28;20997;-74
2022/01/13 04:42:35;;;;;;;27.07;17.87;;;;;;;-2.48;100.00;98460.84;5072859;28;20479;-74
2022/01/13 04:45:04;;;;;;;26.87;18.10;;;;;;;-1.96;100.00;98524.31;5074039;28;20451;-74
2022/01/13 04:47:31;;;;;;;25.10;16.53;;;;;;;-1.68;100.00;98519.06;5073869;28;20448;-74
2022/01/13 04:49:58;;;;;;;28.63;20.00;;;;;;;-1.85;100.00;98497.88;5072709;28;20432;-73
2022/01/13 04:52:24;;;;;;;26.30;17.57;;;;;;;-1.89;100.00;98485.47;5074110;28;20467;-74
2022/01/13 04:54:51;;;;;;;26.37;18.53;;;;;;;-1.49;100.00;98520.94;5073787;28;20447;-73
2022/01/13 04:57:18;;;;;;;25.10;17.17;;;;;;;-1.51;100.00;98514.34;5056003;28;20526;-74
2022/01/13 04:59:45;;;;;;;26.70;17.60;;;;;;;-1.97;100.00;98460.53;5072625;28;20523;-74
2022/01/13 05:02:14;;;;;;;27.97;17.20;;;;;;;-1.85;100.00;98473.75;5073784;28;21010;-74
2022/01/13 05:04:41;;;;;;;27.77;18.80;;;;;;;-2.00;100.00;98437.59;5072367;28;20428;-74
2022/01/13 05:07:08;;;;;;;25.37;17.40;;;;;;;-1.61;100.00;98464.63;5072384;28;20963;-74
2022/01/13 05:09:34;;;;;;;27.70;17.23;;;;;;;-1.75;100.00;98462.97;5055738;28;20448;-74
2022/01/13 05:12:02;;;;;;;31.83;19.90;;;;;;;-1.66;100.00;98467.00;5073508;28;20871;-74
2022/01/13 05:14:30;;;;;;;24.67;18.43;;;;;;;-1.63;100.00;98471.81;5073648;28;20478;-73
2022/01/13 05:19:38;;;;;;;27.70;18.50;;;;;;;-1.43;100.00;98500.41;5073395;28;20465;-74
2022/01/13 05:24:37;;;;;;;24.67;18.33;;;;;;;-1.57;100.00;98494.38;5073277;28;20412;-73
2022/01/13 05:27:05;;;;;;;23.50;16.10;;;;;;;-1.65;100.00;98482.38;5071947;28;20935;-74
2022/01/13 05:29:32;;;;;;;23.50;17.20;;;;;;;-1.44;100.00;98507.41;5055265;28;20440;-74
2022/01/13 05:31:58;;;;;;;25.03;17.20;;;;;;;-1.90;100.00;98474.28;5071786;28;20463;-74
2022/01/13 05:34:25;;;;;;;22.90;17.77;;;;;;;-1.54;100.00;98509.56;5054777;28;20503;-73
2022/01/13 05:37:10;;;;;;;26.23;17.13;;;;;;;-1.54;100.00;98531.09;5071541;28;20467;-74
2022/01/13 05:39:37;;;;;;;26.20;17.23;;;;;;;-1.44;100.00;98525.56;5071902;28;20436;-74
2022/01/13 05:42:03;;;;;;;25.03;16.87;;;;;;;-1.50;100.00;98502.97;5072958;28;20424;-74
2022/01/13 05:44:37;;;;;;;29.33;18.60;;;;;;;-1.71;100.00;98498.72;5071770;28;20444;-73
2022/01/13 05:47:05;;;;;;;25.20;15.60;;;;;;;-1.40;100.00;98537.13;5071797;28;20511;-74
2022/01/13 05:49:32;;;;;;;23.50;17.10;;;;;;;-1.37;100.00;98525.56;5071711;28;20474;-73
2022/01/13 05:51:58;;;;;;;23.20;15.73;;;;;;;-1.35;100.00;98537.34;5071533;28;20436;-74
2022/01/13 05:54:25;;;;;;;26.93;16.70;;;;;;;-1.49;100.00;98507.16;5071897;28;20554;-74
2022/01/13 05:56:52;;;;;;;21.30;17.30;;;;;;;-1.49;100.00;98522.72;5072731;28;20578;-74
2022/01/13 05:59:21;;;;;;;30.40;20.40;;;;;;;-1.58;100.00;98513.53;5071397;28;20453;-74
2022/01/13 06:01:47;;;;;;;27.73;18.87;;;;;;;-1.34;100.00;98540.72;5071163;28;20494;-74
2022/01/13 06:04:15;;;;;;;25.10;17.03;;;;;;;-1.51;100.00;98509.16;5071589;28;21059;-74
2022/01/13 06:06:42;;;;;;;23.90;17.80;;;;;;;-1.57;100.00;98494.38;5054890;28;20541;-74
2022/01/13 06:09:09;;;;;;;22.40;16.73;;;;;;;-1.92;100.00;98475.50;5071388;28;20812;-74
2022/01/13 06:11:41;;;;;;;21.73;15.30;;;;;;;-1.23;100.00;98533.19;5071214;28;20864;-74
2022/01/13 06:14:08;;;;;;;21.57;15.50;;;;;;;-1.42;100.00;98502.81;5072824;28;20420;-74
2022/01/13 06:16:34;;;;;;;29.63;17.70;;;;;;;-1.36;100.00;98525.38;5070932;28;20525;-73
2022/01/13 06:19:02;;;;;;;22.90;16.67;;;;;;;-1.50;100.00;98502.97;5071137;28;21021;-73
2022/01/13 06:21:29;;;;;;;20.43;16.20;;;;;;;-1.55;100.00;98503.56;5072403;28;20475;-73
2022/01/13 06:23:56;;;;;;;29.07;17.23;;;;;;;-1.40;100.00;98549.31;5071024;28;20437;-75
2022/01/13 06:26:23;;;;;;;26.03;18.30;;;;;;;-1.39;100.00;98541.31;5072007;28;20514;-74
2022/01/13 06:28:50;;;;;;;24.43;16.70;;;;;;;-1.29;100.00;98548.75;5071131;28;20432;-73
2022/01/13 06:31:16;;;;;;;33.07;19.10;;;;;;;-1.36;100.00;98530.56;5072579;28;20436;-73
2022/01/13 06:33:43;;;;;;;23.90;17.00;;;;;;;-1.39;100.00;98533.53;5070924;28;20440;-73
2022/01/13 06:36:14;;;;;;;48.20;29.10;;;;;;;-1.45;100.00;98538.72;5070797;28;20460;-73
2022/01/13 06:38:42;;;;;;;37.77;28.03;;;;;;;-1.46;100.00;98535.34;5071228;28;20953;-74
2022/01/13 06:41:08;;;;;;;26.53;15.80;;;;;;;-1.80;100.00;98518.03;5070912;28;20428;-74
2022/01/13 06:43:36;;;;;;;27.63;23.27;;;;;;;-1.44;100.00;98546.31;5054400;28;20433;-73
2022/01/13 06:46:03;;;;;;;27.93;20.20;;;;;;;-1.41;100.00;98558.09;5053122;28;20842;-73
2022/01/13 06:48:30;;;;;;;28.83;17.10;;;;;;;-1.61;100.00;98534.66;5054021;28;20445;-73
2022/01/13 06:50:57;;;;;;;29.07;25.90;;;;;;;-1.24;100.00;98557.53;5070634;28;20464;-73
2022/01/13 06:53:24;;;;;;;31.13;21.83;;;;;;;-1.32;100.00;98549.16;5070640;28;20428;-73
2022/01/13 06:55:52;;;;;;;24.17;19.40;;;;;;;-1.27;100.00;98562.31;5053742;28;20441;-74
2022/01/13 06:58:19;;;;;;;24.97;17.77;;;;;;;-1.37;100.00;98569.66;5053795;28;20813;-73
2022/01/13 07:00:45;;;;;;;29.27;19.33;;;;;;;-1.55;100.00;98541.66;5070386;28;20440;-74
2022/01/13 07:03:12;;;;;;;27.90;18.57;;;;;;;-1.67;100.00;98543.22;5071655;28;20456;-74
2022/01/13 07:05:39;;;;;;;21.73;16.87;;;;;;;-1.50;100.00;98581.59;5070176;28;20461;-74
2022/01/13 07:08:10;;;;;;;30.53;25.17;;;;;;;-1.24;100.00;98578.31;5070034;28;20836;-74
2022/01/13 07:10:37;;;;;;;25.50;19.60;;;;;;;-1.34;100.00;98570.06;5070185;28;20474;-73
2022/01/13 07:13:03;;;;;;;31.13;23.13;;;;;;;-1.37;100.00;98570.47;5070330;28;20463;-73
2022/01/13 07:15:31;;;;;;;22.27;18.60;;;;;;;-1.27;100.00;98560.53;5053437;28;20440;-74
2022/01/13 07:17:59;;;;;;;22.90;18.70;;;;;;;-1.25;100.00;98560.34;5070182;28;20518;-74
2022/01/13 07:20:27;;;;;;;24.37;17.10;;;;;;;-1.62;100.00;98522.69;5069991;28;20812;-73
2022/01/13 07:22:54;;;;;;;23.27;18.90;;;;;;;-1.80;100.00;98479.13;5070296;28;20443;-74
2022/01/13 07:25:21;;;;;;;20.20;15.20;;;;;;;-1.42;100.00;98561.69;5071335;28;20462;-73
2022/01/13 07:27:48;;;;;;;24.63;18.67;;;;;;;-1.40;100.00;98567.47;5070079;28;20470;-73
2022/01/13 07:30:14;;;;;;;24.57;19.90;;;;;;;-1.26;100.00;98598.47;5069967;28;20940;-74
2022/01/13 07:32:41;;;;;;;21.07;17.70;;;;;;;-1.52;100.00;98580.97;5071397;28;21002;-73
2022/01/13 07:35:09;;;;;;;26.60;19.63;;;;;;;-1.44;100.00;98569.66;5069987;28;20770;-75
2022/01/13 07:37:36;;;;;;;27.43;19.47;;;;;;;-1.29;100.00;98606.63;5053149;28;20892;-73
2022/01/13 07:40:03;;;;;;;27.43;17.70;;;;;;;-1.36;100.00;98595.41;5069935;28;20443;-73
2022/01/13 07:42:30;;;;;;;24.07;16.27;;;;;;;-1.42;100.00;98582.44;5069912;28;20436;-74
2022/01/13 07:44:57;;;;;;;32.73;19.33;;;;;;;-1.18;100.00;98592.31;5053547;28;20436;-74
2022/01/13 07:47:24;;;;;;;30.07;19.80;;;;;;;-1.29;100.00;98578.09;5069567;28;20563;-74
2022/01/13 07:49:50;;;;;;;25.93;18.60;;;;;;;-1.12;100.00;98585.53;5070066;28;20451;-74
2022/01/13 07:52:17;;;;;;;34.97;25.27;;;;;;;-1.24;100.00;98569.72;5071139;28;20460;-74
2022/01/13 07:54:44;;;;;;;52.60;40.80;;;;;;;-1.37;100.00;98538.53;5069792;28;20444;-73
2022/01/13 07:57:10;;;;;;;35.20;25.20;;;;;;;-1.43;100.00;98536.72;5072265;28;20451;-74
2022/01/13 07:59:37;;;;;;;59.27;42.10;;;;;;;-1.17;100.00;98586.13;5057350;28;20440;-73
2022/01/13 08:02:04;;;;;;;68.43;55.67;;;;;;;-1.24;100.00;98573.09;5075594;28;21093;-73
2022/01/13 08:04:30;;;;;;;41.43;31.93;;;;;;;-1.31;100.00;98564.50;5075154;28;20436;-73
2022/01/13 08:06:59;;;;;;;31.23;27.93;;;;;;;-1.49;100.00;98553.84;5073653;28;20504;-73
2022/01/13 08:09:26;;;;;;;18.63;15.30;;;;;;;-1.68;100.00;98575.31;5073363;28;20443;-74
2022/01/13 08:11:52;;;;;;;20.53;15.00;;;;;;;-1.85;100.00;98564.47;5073672;28;20436;-74
2022/01/13 08:14:19;;;;;;;15.40;11.30;;;;;;;-1.48;100.00;98609.94;5073706;28;20540;-74
2022/01/13 08:16:47;;;;;;;21.50;16.23;;;;;;;-1.47;100.00;98577.81;5074679;28;20897;-73
2022/01/13 08:21:59;;;;;;;27.73;17.00;;;;;;;-1.25;100.00;98581.91;5073586;28;20778;-73
2022/01/13 08:24:25;;;;;;;18.97;15.87;;;;;;;-1.22;100.00;98565.94;5073576;28;20864;-73
2022/01/13 08:26:52;;;;;;;20.67;17.27;;;;;;;-1.04;100.00;98612.13;5073293;28;20511;-73
2022/01/13 08:29:19;;;;;;;22.80;15.40;;;;;;;-1.46;100.00;98545.72;5056626;28;20440;-73
2022/01/13 08:31:45;;;;;;;21.00;14.87;;;;;;;-1.33;100.00;98584.69;5073177;28;20527;-75
2022/01/13 08:34:14;;;;;;;124.93;66.20;;;;;;;-1.02;100.00;98604.94;5056616;28;20456;-74
2022/01/13 08:36:41;;;;;;;78.43;49.40;;;;;;;-0.91;100.00;98595.78;5074138;28;20483;-73
2022/01/13 08:39:07;;;;;;;37.37;28.70;;;;;;;-1.12;100.00;98562.97;5073225;28;20489;-73
2022/01/13 08:41:40;;;;;;;48.53;38.10;;;;;;;-0.88;100.00;98602.38;5056977;28;20421;-73
2022/01/13 08:44:07;;;;;;;33.37;28.23;;;;;;;-1.22;100.00;98565.13;5072865;28;20443;-73
2022/01/13 08:46:34;;;;;;;18.20;12.63;;;;;;;-1.10;100.00;98592.13;5074063;28;20478;-73
2022/01/13 08:49:01;;;;;;;20.23;14.30;;;;;;;-1.74;100.00;98509.47;5074220;28;20436;-73
2022/01/13 08:51:27;;;;;;;13.63;12.27;;;;;;;-1.34;100.00;98569.28;5072945;28;20971;-73
2022/01/13 08:53:54;;;;;;;13.63;12.13;;;;;;;-1.10;100.00;98605.09;5072840;28;20452;-74
2022/01/13 08:56:23;;;;;;;21.33;13.80;;;;;;;-1.09;100.00;98601.50;5072675;28;20452;-73
2022/01/13 08:58:50;;;;;;;20.00;14.23;;;;;;;-1.09;100.00;98588.53;5074031;28;20435;-74
2022/01/13 09:01:16;;;;;;;19.67;13.60;;;;;;;-1.20;100.00;98570.94;5056002;28;20444;-73
2022/01/13 09:03:43;;;;;;;17.00;12.97;;;;;;;-1.27;100.00;98565.72;5072559;28;20854;-73
2022/01/13 09:06:10;;;;;;;14.57;11.13;;;;;;;-0.98;100.00;98607.94;5072527;28;20559;-73
2022/01/13 09:08:37;;;;;;;16.80;13.40;;;;;;;-1.48;100.00;98537.28;5071686;28;20547;-73
2022/01/13 09:11:04;;;;;;;17.63;14.33;;;;;;;-1.06;100.00;98603.72;5072717;28;20474;-73
2022/01/13 09:13:36;;;;;;;17.60;13.40;;;;;;;-0.93;100.00;98623.75;5074402;28;21011;-73
2022/01/13 09:16:13;;;;;;;16.23;13.03;;;;;;;-0.85;100.00;98620.94;5072314;28;20846;-73
2022/01/13 09:18:59;;;;;;;21.47;13.87;;;;;;;-0.74;100.00;98624.78;5055741;28;20450;-74
2022/01/13 09:21:28;;;;;;;17.70;13.87;;;;;;;-0.83;100.00;98624.16;5073701;28;20942;-74
2022/01/13 09:23:55;;;;;;;26.03;15.10;;;;;;;-0.96;100.00;98596.34;5073475;28;20433;-74
2022/01/13 09:26:22;;;;;;;17.37;12.70;;;;;;;-0.90;100.00;98621.56;5071986;28;20537;-73
2022/01/13 09:28:49;;;;;;;19.47;12.67;;;;;;;-0.93;100.00;98634.13;5073395;28;20428;-73
2022/01/13 09:31:15;;;;;;;15.70;13.17;;;;;;;-1.01;100.00;98624.72;5073577;28;20436;-73
2022/01/13 09:33:42;;;;;;;18.70;12.87;;;;;;;-1.12;100.00;98599.31;5072430;28;20501;-73
2022/01/13 09:36:09;;;;;;;19.90;14.90;;;;;;;-1.23;100.00;98579.91;5071743;28;20852;-73
2022/01/13 09:38:36;;;;;;;19.17;12.90;;;;;;;-0.90;100.00;98637.13;5071912;28;20421;-74
2022/01/13 09:41:03;;;;;;;12.67;11.37;;;;;;;-1.03;100.00;98629.28;5071989;28;20432;-74
2022/01/13 09:43:30;;;;;;;17.97;13.43;;;;;;;-1.04;100.00;98637.28;5072018;28;20482;-73
2022/01/13 09:45:58;;;;;;;17.43;12.97;;;;;;;-1.14;100.00;98596.09;5071580;28;20448;-74
2022/01/13 09:48:27;;;;;;;14.03;11.60;;;;;;;-0.88;100.00;98646.53;5073090;28;20440;-74
2022/01/13 09:50:54;;;;;;;22.50;13.83;;;;;;;-0.87;100.00;98629.94;5073115;28;20432;-74
2022/01/13 09:53:21;;;;;;;21.17;14.83;;;;;;;-0.95;100.00;98630.91;5071572;28;21020;-74
2022/01/13 09:55:47;;;;;;;19.00;15.43;;;;;;;-0.74;100.00;98666.34;5071744;28;20440;-76
2022/01/13 09:58:15;;;;;;;25.77;15.40;;;;;;;-0.85;100.00;98652.13;5072811;28;20440;-76
2022/01/13 10:00:43;;;;;;;19.33;14.17;;;;;;;-0.88;100.00;98628.34;5071542;28;20432;-76
2022/01/13 10:03:29;;;;;;;19.20;14.40;;;;;;;-0.52;100.00;98685.19;5072300;28;20432;-77
2022/01/13 10:05:56;;;;;;;18.83;12.60;;;;;;;-0.53;100.00;98681.78;5072933;28;20965;-76
2022/01/13 10:08:45;;;;;;;16.90;13.50;;;;;;;-0.67;100.00;98669.72;5076167;28;20432;-74
2022/01/13 10:11:33;;;;;;;13.33;11.50;;;;;;;-0.57;100.00;98669.38;5071400;28;20472;-74
2022/01/13 10:17:01;;;;;;;21.70;14.77;;;;;;;-0.68;100.00;98648.16;5063294;28;20460;-74
2022/01/13 10:19:50;;;;;;;15.37;11.60;;;;;;;-0.69;100.00;98643.16;5071077;28;20421;-74
2022/01/13 10:22:23;;;;;;;18.60;16.50;;;;;;;-0.55;100.00;98642.19;5054624;28;20445;-76
2022/01/13 10:24:52;;;;;;;14.50;12.53;;;;;;;-0.48;100.00;98643.03;5072444;28;20459;-76
2022/01/13 10:27:28;;;;;;;18.77;14.57;;;;;;;-0.60;100.00;98613.41;5054481;28;20498;-74
2022/01/13 10:30:04;;;;;;;24.03;13.90;;;;;;;-0.53;100.00;98648.00;5070961;28;20486;-74
2022/01/13 10:32:41;;;;;;;18.90;15.63;;;;;;;-0.52;100.00;98635.81;5072510;28;20527;-76
2022/01/13 10:35:16;;;;;;;16.77;13.83;;;;;;;-0.68;100.00;98596.22;5054321;28;20447;-77
2022/01/13 10:37:44;;;;;;;39.80;25.07;;;;;;;-0.54;100.00;98620.41;5070922;28;20491;-77
2022/01/13 10:40:21;;;;;;;45.93;30.33;;;;;;;-0.56;100.00;98606.03;5072114;28;20428;-76
2022/01/13 10:45:26;;;;;;;19.43;15.17;;;;;;;-0.47;100.00;98612.63;5070708;28;20437;-75
2022/01/13 10:47:57;;;;;;;19.30;16.80;;;;;;;-0.39;100.00;98609.84;5053930;28;20472;-75
2022/01/13 10:50:36;;;;;;;23.73;17.80;;;;;;;-0.38;100.00;98607.06;5070385;28;20494;-75
2022/01/13 10:53:09;;;;;;;22.83;18.80;;;;;;;-0.32;100.00;98602.84;5070701;28;20521;-76
2022/01/13 10:55:43;;;;;;;30.87;22.30;;;;;;;-0.48;100.00;98585.06;5071821;28;20424;-76
2022/01/13 10:58:12;;;;;;;38.30;29.37;;;;;;;-0.21;100.00;98622.25;5070518;28;20460;-76
2022/01/13 11:00:40;;;;;;;19.63;15.50;;;;;;;-0.47;100.00;98591.84;5053623;28;20460;-76
2022/01/13 11:03:10;;;;;;;17.93;15.10;;;;;;;-0.30;100.00;98612.03;5070426;28;20437;-75
2022/01/13 11:05:41;;;;;;;21.83;14.50;;;;;;;-0.36;100.00;98612.06;5070559;28;20446;-75
2022/01/13 11:08:09;;;;;;;28.07;21.40;;;;;;;-0.71;100.00;98554.25;5053787;28;20464;-75
2022/01/13 11:10:39;;;;;;;36.27;28.20;;;;;;;-0.27;100.00;98607.44;5071532;28;20436;-75
2022/01/13 11:13:07;;;;;;;27.03;21.10;;;;;;;-0.75;100.00;98551.25;5070222;28;20494;-76
2022/01/13 11:15:38;;;;;;;35.43;26.70;;;;;;;-0.41;100.00;98611.81;5053676;28;20506;-74
2022/01/13 11:18:05;;;;;;;22.23;16.67;;;;;;;-0.53;100.00;98597.84;5071435;28;20477;-74
2022/01/13 11:20:32;;;;;;;29.90;23.03;;;;;;;-0.58;100.00;98598.44;5053604;28;20559;-74
2022/01/13 11:22:59;;;;;;;24.33;17.70;;;;;;;-0.67;100.00;98574.47;5070258;28;20440;-74
2022/01/13 11:25:27;;;;;;;25.63;20.87;;;;;;;-0.34;100.00;98617.84;5072618;28;20453;-75
2022/01/13 11:27:56;;;;;;;19.03;17.00;;;;;;;-0.35;100.00;98608.44;5053512;28;20499;-74
2022/01/13 11:30:26;;;;;;;17.63;15.50;;;;;;;-0.23;100.00;98612.06;5054091;28;20478;-75
2022/01/13 11:32:53;;;;;;;17.27;14.40;;;;;;;-0.44;100.00;98563.66;5077092;28;20810;-75
2022/01/13 11:35:30;;;;;;;24.60;18.03;;;;;;;-0.40;100.00;98575.28;5060195;28;20817;-74
2022/01/13 11:38:01;;;;;;;26.07;18.13;;;;;;;-0.27;100.00;98582.25;5078242;28;20459;-77
2022/01/13 11:40:28;;;;;;;28.13;20.60;;;;;;;-0.15;100.00;98590.25;5077283;28;20420;-77
2022/01/13 11:42:59;;;;;;;35.50;26.03;;;;;;;-0.09;100.00;98571.25;5077239;28;20463;-77
2022/01/13 11:45:27;;;;;;;18.73;15.60;;;;;;;-0.05;100.00;98582.84;5078422;28;20432;-76
2022/01/13 11:48:15;;;;;;;25.77;18.60;;;;;;;-0.09;100.00;98582.44;5060251;28;20463;-77